sensor_id;sensor_type;location;lat;lon;timestamp;P1;durP1;ratioP1;P2;durP2;ratioP2
30874;SDS011;17581;43.222;27.924;2023-04-03T00:00:02;10.45;;;4.30;;
30874;SDS011;17581;43.222;27.924;2023-04-03T00:02:30;10.55;;;3.70;;
30874;SDS011;17581;43.222;27.924;2023-04-03T00:04:55;7.47;;;3.90;;
30874;SDS011;17581;43.222;27.924;2023-04-03T00:07:21;5.72;;;3.00;;
30874;SDS011;17581;43.222;27.924;2023-04-03T00:09:46;28.42;;;5.03;;
30874;SDS011;17581;43.222;27.924;2023-04-03T00:12:11;12.00;;;4.60;;
30874;SDS011;17581;43.222;27.924;2023-04-03T00:14:37;8.45;;;4.32;;
30874;SDS011;17581;43.222;27.924;2023-04-03T00:17:02;6.40;;;4.00;;
30874;SDS011;17581;43.222;27.924;2023-04-03T00:19:28;13.20;;;6.22;;
30874;SDS011;17581;43.222;27.924;2023-04-03T00:21:53;9.57;;;5.35;;
30874;SDS011;17581;43.222;27.924;2023-04-03T00:24:19;8.60;;;6.05;;
30874;SDS011;17581;43.222;27.924;2023-04-03T00:26:44;14.18;;;6.32;;
30874;SDS011;17581;43.222;27.924;2023-04-03T00:29:09;9.30;;;6.50;;
30874;SDS011;17581;43.222;27.924;2023-04-03T00:31:35;12.90;;;8.10;;
30874;SDS011;17581;43.222;27.924;2023-04-03T00:34:00;19.58;;;8.68;;
30874;SDS011;17581;43.222;27.924;2023-04-03T00:36:26;15.13;;;7.88;;
30874;SDS011;17581;43.222;27.924;2023-04-03T00:38:51;16.02;;;7.55;;
30874;SDS011;17581;43.222;27.924;2023-04-03T00:41:17;10.48;;;6.68;;
30874;SDS011;17581;43.222;27.924;2023-04-03T00:43:42;19.83;;;7.43;;
30874;SDS011;17581;43.222;27.924;2023-04-03T00:46:07;16.25;;;7.25;;
30874;SDS011;17581;43.222;27.924;2023-04-03T00:51:07;12.05;;;7.43;;
30874;SDS011;17581;43.222;27.924;2023-04-03T00:53:47;11.35;;;7.07;;
30874;SDS011;17581;43.222;27.924;2023-04-03T00:56:16;13.75;;;7.50;;
30874;SDS011;17581;43.222;27.924;2023-04-03T00:58:49;13.73;;;6.80;;
30874;SDS011;17581;43.222;27.924;2023-04-03T01:01:22;15.98;;;8.00;;
30874;SDS011;17581;43.222;27.924;2023-04-03T01:03:50;20.65;;;8.65;;
30874;SDS011;17581;43.222;27.924;2023-04-03T01:06:17;16.23;;;8.38;;
30874;SDS011;17581;43.222;27.924;2023-04-03T01:08:48;20.20;;;8.90;;
30874;SDS011;17581;43.222;27.924;2023-04-03T01:11:15;16.20;;;6.95;;
30874;SDS011;17581;43.222;27.924;2023-04-03T01:13:40;14.07;;;7.35;;
30874;SDS011;17581;43.222;27.924;2023-04-03T01:16:06;19.55;;;8.23;;
30874;SDS011;17581;43.222;27.924;2023-04-03T01:18:32;20.23;;;8.50;;
30874;SDS011;17581;43.222;27.924;2023-04-03T01:26:37;15.13;;;6.75;;
30874;SDS011;17581;43.222;27.924;2023-04-03T01:29:02;9.45;;;7.10;;
30874;SDS011;17581;43.222;27.924;2023-04-03T01:31:31;9.55;;;6.00;;
30874;SDS011;17581;43.222;27.924;2023-04-03T01:34:08;10.48;;;6.28;;
30874;SDS011;17581;43.222;27.924;2023-04-03T01:36:34;9.93;;;6.10;;
30874;SDS011;17581;43.222;27.924;2023-04-03T01:39:00;8.45;;;5.70;;
30874;SDS011;17581;43.222;27.924;2023-04-03T01:41:26;10.68;;;5.82;;
30874;SDS011;17581;43.222;27.924;2023-04-03T01:43:51;8.23;;;5.78;;
30874;SDS011;17581;43.222;27.924;2023-04-03T01:46:17;10.38;;;6.47;;
30874;SDS011;17581;43.222;27.924;2023-04-03T01:48:44;14.45;;;6.60;;
30874;SDS011;17581;43.222;27.924;2023-04-03T01:51:10;13.55;;;7.43;;
30874;SDS011;17581;43.222;27.924;2023-04-03T01:53:35;16.02;;;7.25;;
30874;SDS011;17581;43.222;27.924;2023-04-03T01:56:01;13.23;;;7.47;;
30874;SDS011;17581;43.222;27.924;2023-04-03T01:58:26;17.30;;;8.10;;
30874;SDS011;17581;43.222;27.924;2023-04-03T02:00:52;16.92;;;9.38;;
30874;SDS011;17581;43.222;27.924;2023-04-03T02:03:18;15.43;;;7.95;;
30874;SDS011;17581;43.222;27.924;2023-04-03T02:05:44;22.45;;;9.10;;
30874;SDS011;17581;43.222;27.924;2023-04-03T02:08:10;19.25;;;10.15;;
30874;SDS011;17581;43.222;27.924;2023-04-03T02:10:36;18.52;;;9.65;;
30874;SDS011;17581;43.222;27.924;2023-04-03T02:13:01;18.23;;;9.85;;
30874;SDS011;17581;43.222;27.924;2023-04-03T02:15:27;24.33;;;13.18;;
30874;SDS011;17581;43.222;27.924;2023-04-03T02:17:53;32.20;;;18.70;;
30874;SDS011;17581;43.222;27.924;2023-04-03T02:20:18;59.90;;;31.88;;
30874;SDS011;17581;43.222;27.924;2023-04-03T02:22:44;48.95;;;28.73;;
30874;SDS011;17581;43.222;27.924;2023-04-03T02:25:09;52.80;;;29.65;;
30874;SDS011;17581;43.222;27.924;2023-04-03T02:27:35;42.67;;;25.25;;
30874;SDS011;17581;43.222;27.924;2023-04-03T02:30:01;47.05;;;26.38;;
30874;SDS011;17581;43.222;27.924;2023-04-03T02:32:26;46.75;;;22.83;;
30874;SDS011;17581;43.222;27.924;2023-04-03T02:34:52;32.78;;;20.88;;
30874;SDS011;17581;43.222;27.924;2023-04-03T02:37:17;36.72;;;20.05;;
30874;SDS011;17581;43.222;27.924;2023-04-03T02:39:43;46.00;;;21.42;;
30874;SDS011;17581;43.222;27.924;2023-04-03T02:42:08;38.60;;;20.90;;
30874;SDS011;17581;43.222;27.924;2023-04-03T02:44:33;34.10;;;21.80;;
30874;SDS011;17581;43.222;27.924;2023-04-03T02:46:59;34.45;;;19.65;;
30874;SDS011;17581;43.222;27.924;2023-04-03T02:49:24;32.75;;;18.45;;
30874;SDS011;17581;43.222;27.924;2023-04-03T02:51:50;28.10;;;16.98;;
30874;SDS011;17581;43.222;27.924;2023-04-03T02:54:16;29.58;;;15.80;;
30874;SDS011;17581;43.222;27.924;2023-04-03T02:56:41;25.27;;;15.80;;
30874;SDS011;17581;43.222;27.924;2023-04-03T02:59:07;31.48;;;15.82;;
30874;SDS011;17581;43.222;27.924;2023-04-03T03:01:32;27.92;;;14.05;;
30874;SDS011;17581;43.222;27.924;2023-04-03T03:03:58;14.80;;;9.85;;
30874;SDS011;17581;43.222;27.924;2023-04-03T03:06:25;20.08;;;9.25;;
30874;SDS011;17581;43.222;27.924;2023-04-03T03:08:50;17.35;;;7.88;;
30874;SDS011;17581;43.222;27.924;2023-04-03T03:11:16;14.32;;;6.65;;
30874;SDS011;17581;43.222;27.924;2023-04-03T03:13:41;9.95;;;4.93;;
30874;SDS011;17581;43.222;27.924;2023-04-03T03:16:07;7.70;;;4.57;;
30874;SDS011;17581;43.222;27.924;2023-04-03T03:18:32;9.65;;;4.72;;
30874;SDS011;17581;43.222;27.924;2023-04-03T03:20:59;5.72;;;3.92;;
30874;SDS011;17581;43.222;27.924;2023-04-03T03:23:27;4.85;;;3.38;;
30874;SDS011;17581;43.222;27.924;2023-04-03T03:25:58;4.35;;;2.78;;
30874;SDS011;17581;43.222;27.924;2023-04-03T03:28:25;6.75;;;4.00;;
30874;SDS011;17581;43.222;27.924;2023-04-03T03:30:50;4.35;;;3.47;;
30874;SDS011;17581;43.222;27.924;2023-04-03T03:33:16;7.75;;;4.13;;
30874;SDS011;17581;43.222;27.924;2023-04-03T03:35:42;7.43;;;3.65;;
30874;SDS011;17581;43.222;27.924;2023-04-03T03:38:08;12.40;;;5.25;;
30874;SDS011;17581;43.222;27.924;2023-04-03T03:40:33;19.52;;;9.23;;
30874;SDS011;17581;43.222;27.924;2023-04-03T03:42:59;18.85;;;10.40;;
30874;SDS011;17581;43.222;27.924;2023-04-03T03:45:24;24.55;;;11.77;;
30874;SDS011;17581;43.222;27.924;2023-04-03T03:47:50;33.15;;;15.73;;
30874;SDS011;17581;43.222;27.924;2023-04-03T03:50:15;32.88;;;16.83;;
30874;SDS011;17581;43.222;27.924;2023-04-03T03:52:41;30.83;;;17.25;;
30874;SDS011;17581;43.222;27.924;2023-04-03T03:55:06;41.05;;;18.75;;
30874;SDS011;17581;43.222;27.924;2023-04-03T03:57:32;31.73;;;17.85;;
30874;SDS011;17581;43.222;27.924;2023-04-03T03:59:58;31.50;;;18.17;;
30874;SDS011;17581;43.222;27.924;2023-04-03T04:02:23;41.63;;;16.45;;
30874;SDS011;17581;43.222;27.924;2023-04-03T04:04:49;21.70;;;12.65;;
30874;SDS011;17581;43.222;27.924;2023-04-03T04:07:14;23.27;;;11.27;;
30874;SDS011;17581;43.222;27.924;2023-04-03T04:09:40;22.25;;;11.20;;
30874;SDS011;17581;43.222;27.924;2023-04-03T04:12:05;20.40;;;11.23;;
30874;SDS011;17581;43.222;27.924;2023-04-03T04:14:31;22.02;;;10.80;;
30874;SDS011;17581;43.222;27.924;2023-04-03T04:16:56;20.27;;;8.63;;
30874;SDS011;17581;43.222;27.924;2023-04-03T04:19:21;20.13;;;9.45;;
30874;SDS011;17581;43.222;27.924;2023-04-03T04:21:47;21.75;;;7.40;;
30874;SDS011;17581;43.222;27.924;2023-04-03T04:24:12;15.18;;;8.55;;
30874;SDS011;17581;43.222;27.924;2023-04-03T04:26:38;21.25;;;8.30;;
30874;SDS011;17581;43.222;27.924;2023-04-03T04:29:03;25.52;;;7.25;;
30874;SDS011;17581;43.222;27.924;2023-04-03T04:31:29;21.35;;;7.32;;
30874;SDS011;17581;43.222;27.924;2023-04-03T04:33:54;16.00;;;6.97;;
30874;SDS011;17581;43.222;27.924;2023-04-03T04:36:20;12.93;;;6.75;;
30874;SDS011;17581;43.222;27.924;2023-04-03T04:38:45;25.20;;;6.80;;
30874;SDS011;17581;43.222;27.924;2023-04-03T04:41:11;24.58;;;6.53;;
30874;SDS011;17581;43.222;27.924;2023-04-03T04:43:36;80.30;;;10.38;;
30874;SDS011;17581;43.222;27.924;2023-04-03T04:46:06;30.80;;;7.55;;
30874;SDS011;17581;43.222;27.924;2023-04-03T04:48:33;51.40;;;9.48;;
30874;SDS011;17581;43.222;27.924;2023-04-03T04:51:00;83.25;;;10.38;;
30874;SDS011;17581;43.222;27.924;2023-04-03T04:53:25;19.08;;;4.82;;
30874;SDS011;17581;43.222;27.924;2023-04-03T04:55:51;13.65;;;4.70;;
30874;SDS011;17581;43.222;27.924;2023-04-03T04:58:17;18.42;;;4.30;;
30874;SDS011;17581;43.222;27.924;2023-04-03T05:00:43;17.15;;;4.00;;
30874;SDS011;17581;43.222;27.924;2023-04-03T05:03:08;10.18;;;3.38;;
30874;SDS011;17581;43.222;27.924;2023-04-03T05:05:34;19.13;;;5.40;;
30874;SDS011;17581;43.222;27.924;2023-04-03T05:08:00;18.13;;;3.70;;
30874;SDS011;17581;43.222;27.924;2023-04-03T05:10:27;16.30;;;4.40;;
30874;SDS011;17581;43.222;27.924;2023-04-03T05:12:52;8.90;;;4.10;;
30874;SDS011;17581;43.222;27.924;2023-04-03T05:15:17;16.35;;;4.68;;
30874;SDS011;17581;43.222;27.924;2023-04-03T05:17:43;15.07;;;3.63;;
30874;SDS011;17581;43.222;27.924;2023-04-03T05:20:08;10.25;;;3.10;;
30874;SDS011;17581;43.222;27.924;2023-04-03T05:22:34;8.85;;;2.67;;
30874;SDS011;17581;43.222;27.924;2023-04-03T05:25:00;8.85;;;3.58;;
30874;SDS011;17581;43.222;27.924;2023-04-03T05:27:25;14.23;;;3.85;;
30874;SDS011;17581;43.222;27.924;2023-04-03T05:29:53;10.68;;;3.60;;
30874;SDS011;17581;43.222;27.924;2023-04-03T05:32:18;5.95;;;2.88;;
30874;SDS011;17581;43.222;27.924;2023-04-03T05:34:45;6.28;;;3.28;;
30874;SDS011;17581;43.222;27.924;2023-04-03T05:37:11;6.88;;;2.85;;
30874;SDS011;17581;43.222;27.924;2023-04-03T05:39:37;4.22;;;2.63;;
30874;SDS011;17581;43.222;27.924;2023-04-03T05:42:05;8.95;;;3.13;;
30874;SDS011;17581;43.222;27.924;2023-04-03T05:44:31;8.82;;;3.70;;
30874;SDS011;17581;43.222;27.924;2023-04-03T05:46:57;13.00;;;3.40;;
30874;SDS011;17581;43.222;27.924;2023-04-03T05:49:22;10.52;;;3.28;;
30874;SDS011;17581;43.222;27.924;2023-04-03T05:51:47;20.38;;;4.05;;
30874;SDS011;17581;43.222;27.924;2023-04-03T05:54:20;16.58;;;3.70;;
30874;SDS011;17581;43.222;27.924;2023-04-03T05:56:49;8.10;;;3.72;;
30874;SDS011;17581;43.222;27.924;2023-04-03T05:59:15;9.43;;;3.65;;
30874;SDS011;17581;43.222;27.924;2023-04-03T06:01:41;9.43;;;3.55;;
30874;SDS011;17581;43.222;27.924;2023-04-03T06:04:07;10.68;;;3.88;;
30874;SDS011;17581;43.222;27.924;2023-04-03T06:09:13;75.65;;;7.35;;
30874;SDS011;17581;43.222;27.924;2023-04-03T06:11:40;9.75;;;3.95;;
30874;SDS011;17581;43.222;27.924;2023-04-03T06:14:07;5.85;;;4.03;;
30874;SDS011;17581;43.222;27.924;2023-04-03T06:16:33;15.48;;;3.63;;
30874;SDS011;17581;43.222;27.924;2023-04-03T06:18:59;59.30;;;7.40;;
30874;SDS011;17581;43.222;27.924;2023-04-03T06:21:24;24.42;;;5.03;;
30874;SDS011;17581;43.222;27.924;2023-04-03T06:23:50;8.00;;;2.97;;
30874;SDS011;17581;43.222;27.924;2023-04-03T06:26:16;24.23;;;4.50;;
30874;SDS011;17581;43.222;27.924;2023-04-03T06:28:42;19.88;;;4.22;;
30874;SDS011;17581;43.222;27.924;2023-04-03T06:31:07;17.85;;;3.78;;
30874;SDS011;17581;43.222;27.924;2023-04-03T06:33:33;12.77;;;3.65;;
30874;SDS011;17581;43.222;27.924;2023-04-03T06:36:02;14.45;;;5.63;;
30874;SDS011;17581;43.222;27.924;2023-04-03T06:38:30;19.02;;;3.85;;
30874;SDS011;17581;43.222;27.924;2023-04-03T06:40:56;27.48;;;3.58;;
30874;SDS011;17581;43.222;27.924;2023-04-03T06:43:21;15.45;;;2.75;;
30874;SDS011;17581;43.222;27.924;2023-04-03T06:45:47;47.22;;;6.32;;
30874;SDS011;17581;43.222;27.924;2023-04-03T06:48:13;9.65;;;2.92;;
30874;SDS011;17581;43.222;27.924;2023-04-03T06:50:38;6.53;;;2.90;;
30874;SDS011;17581;43.222;27.924;2023-04-03T06:53:04;7.57;;;3.53;;
30874;SDS011;17581;43.222;27.924;2023-04-03T06:55:30;25.35;;;3.95;;
30874;SDS011;17581;43.222;27.924;2023-04-03T06:57:56;15.70;;;4.88;;
30874;SDS011;17581;43.222;27.924;2023-04-03T07:00:22;12.25;;;4.53;;
30874;SDS011;17581;43.222;27.924;2023-04-03T07:02:47;19.05;;;4.35;;
30874;SDS011;17581;43.222;27.924;2023-04-03T07:05:13;8.38;;;3.85;;
30874;SDS011;17581;43.222;27.924;2023-04-03T07:07:39;17.00;;;4.18;;
30874;SDS011;17581;43.222;27.924;2023-04-03T07:10:05;24.52;;;3.80;;
30874;SDS011;17581;43.222;27.924;2023-04-03T07:12:31;33.53;;;4.78;;
30874;SDS011;17581;43.222;27.924;2023-04-03T07:14:57;26.23;;;5.43;;
30874;SDS011;17581;43.222;27.924;2023-04-03T07:17:23;12.55;;;3.20;;
30874;SDS011;17581;43.222;27.924;2023-04-03T07:19:50;15.10;;;3.30;;
30874;SDS011;17581;43.222;27.924;2023-04-03T07:22:16;6.07;;;3.85;;
30874;SDS011;17581;43.222;27.924;2023-04-03T07:24:41;7.30;;;3.03;;
30874;SDS011;17581;43.222;27.924;2023-04-03T07:27:07;5.40;;;3.55;;
30874;SDS011;17581;43.222;27.924;2023-04-03T07:29:33;13.65;;;3.08;;
30874;SDS011;17581;43.222;27.924;2023-04-03T07:32:00;8.05;;;3.47;;
30874;SDS011;17581;43.222;27.924;2023-04-03T07:34:26;23.02;;;4.15;;
30874;SDS011;17581;43.222;27.924;2023-04-03T07:36:51;7.72;;;3.10;;
30874;SDS011;17581;43.222;27.924;2023-04-03T07:39:17;8.07;;;3.38;;
30874;SDS011;17581;43.222;27.924;2023-04-03T07:41:42;50.13;;;7.00;;
30874;SDS011;17581;43.222;27.924;2023-04-03T07:44:08;32.58;;;4.95;;
30874;SDS011;17581;43.222;27.924;2023-04-03T07:46:35;44.83;;;8.15;;
30874;SDS011;17581;43.222;27.924;2023-04-03T07:49:00;18.83;;;5.03;;
30874;SDS011;17581;43.222;27.924;2023-04-03T07:51:26;19.20;;;5.88;;
30874;SDS011;17581;43.222;27.924;2023-04-03T07:53:53;24.05;;;5.60;;
30874;SDS011;17581;43.222;27.924;2023-04-03T07:56:19;14.18;;;5.40;;
30874;SDS011;17581;43.222;27.924;2023-04-03T07:58:45;27.33;;;5.80;;
30874;SDS011;17581;43.222;27.924;2023-04-03T08:01:11;11.27;;;6.03;;
30874;SDS011;17581;43.222;27.924;2023-04-03T08:03:36;21.80;;;4.80;;
30874;SDS011;17581;43.222;27.924;2023-04-03T08:06:04;29.33;;;6.38;;
30874;SDS011;17581;43.222;27.924;2023-04-03T08:08:31;9.88;;;4.55;;
30874;SDS011;17581;43.222;27.924;2023-04-03T08:10:58;27.00;;;6.75;;
30874;SDS011;17581;43.222;27.924;2023-04-03T08:13:25;15.60;;;5.43;;
30874;SDS011;17581;43.222;27.924;2023-04-03T08:15:51;10.05;;;4.10;;
30874;SDS011;17581;43.222;27.924;2023-04-03T08:18:17;16.65;;;4.70;;
30874;SDS011;17581;43.222;27.924;2023-04-03T08:20:46;19.02;;;5.25;;
30874;SDS011;17581;43.222;27.924;2023-04-03T08:23:12;32.17;;;8.15;;
30874;SDS011;17581;43.222;27.924;2023-04-03T08:25:41;32.38;;;6.00;;
30874;SDS011;17581;43.222;27.924;2023-04-03T08:28:08;32.40;;;5.85;;
30874;SDS011;17581;43.222;27.924;2023-04-03T08:30:34;47.28;;;9.68;;
30874;SDS011;17581;43.222;27.924;2023-04-03T08:33:00;13.18;;;5.53;;
30874;SDS011;17581;43.222;27.924;2023-04-03T08:35:26;14.00;;;5.05;;
30874;SDS011;17581;43.222;27.924;2023-04-03T08:37:52;22.83;;;5.95;;
30874;SDS011;17581;43.222;27.924;2023-04-03T08:40:18;21.45;;;6.03;;
30874;SDS011;17581;43.222;27.924;2023-04-03T08:48:20;42.50;;;6.40;;
30874;SDS011;17581;43.222;27.924;2023-04-03T08:50:47;12.63;;;5.38;;
30874;SDS011;17581;43.222;27.924;2023-04-03T08:53:17;10.90;;;6.63;;
30874;SDS011;17581;43.222;27.924;2023-04-03T08:55:49;16.53;;;5.97;;
30874;SDS011;17581;43.222;27.924;2023-04-03T09:03:30;20.85;;;6.60;;
30874;SDS011;17581;43.222;27.924;2023-04-03T09:08:36;19.02;;;7.05;;
30874;SDS011;17581;43.222;27.924;2023-04-03T09:11:16;14.05;;;6.50;;
30874;SDS011;17581;43.222;27.924;2023-04-03T09:16:33;13.53;;;5.90;;
30874;SDS011;17581;43.222;27.924;2023-04-03T09:22:23;10.40;;;5.88;;
30874;SDS011;17581;43.222;27.924;2023-04-03T09:27:42;15.05;;;5.88;;
30874;SDS011;17581;43.222;27.924;2023-04-03T09:30:12;21.58;;;6.32;;
30874;SDS011;17581;43.222;27.924;2023-04-03T09:32:47;10.77;;;6.00;;
30874;SDS011;17581;43.222;27.924;2023-04-03T09:35:19;20.65;;;7.43;;
30874;SDS011;17581;43.222;27.924;2023-04-03T09:38:14;14.98;;;7.25;;
30874;SDS011;17581;43.222;27.924;2023-04-03T09:40:46;19.67;;;8.98;;
30874;SDS011;17581;43.222;27.924;2023-04-03T09:43:22;15.63;;;7.47;;
30874;SDS011;17581;43.222;27.924;2023-04-03T09:45:50;19.90;;;7.03;;
30874;SDS011;17581;43.222;27.924;2023-04-03T09:48:20;16.13;;;7.75;;
30874;SDS011;17581;43.222;27.924;2023-04-03T09:53:31;16.05;;;7.05;;
30874;SDS011;17581;43.222;27.924;2023-04-03T09:56:03;25.42;;;7.88;;
30874;SDS011;17581;43.222;27.924;2023-04-03T09:58:40;23.00;;;7.55;;
30874;SDS011;17581;43.222;27.924;2023-04-03T10:06:45;19.83;;;7.90;;
30874;SDS011;17581;43.222;27.924;2023-04-03T10:09:23;17.42;;;7.60;;
30874;SDS011;17581;43.222;27.924;2023-04-03T10:14:40;14.32;;;7.00;;
30874;SDS011;17581;43.222;27.924;2023-04-03T10:19:56;31.10;;;8.02;;
30874;SDS011;17581;43.222;27.924;2023-04-03T10:25:12;51.50;;;11.52;;
30874;SDS011;17581;43.222;27.924;2023-04-03T10:44:31;13.52;;;6.60;;
30874;SDS011;17581;43.222;27.924;2023-04-03T10:57:45;14.50;;;5.05;;
30874;SDS011;17581;43.222;27.924;2023-04-03T11:00:26;15.25;;;5.88;;
30874;SDS011;17581;43.222;27.924;2023-04-03T11:03:06;20.83;;;5.80;;
30874;SDS011;17581;43.222;27.924;2023-04-03T11:05:41;8.38;;;4.88;;
30874;SDS011;17581;43.222;27.924;2023-04-03T11:08:13;36.00;;;5.57;;
30874;SDS011;17581;43.222;27.924;2023-04-03T11:10:59;8.77;;;5.60;;
30874;SDS011;17581;43.222;27.924;2023-04-03T11:16:05;15.13;;;5.65;;
30874;SDS011;17581;43.222;27.924;2023-04-03T11:21:27;14.48;;;5.57;;
30874;SDS011;17581;43.222;27.924;2023-04-03T11:23:57;18.20;;;4.75;;
30874;SDS011;17581;43.222;27.924;2023-04-03T11:26:25;10.98;;;5.55;;
30874;SDS011;17581;43.222;27.924;2023-04-03T11:28:56;24.45;;;5.75;;
30874;SDS011;17581;43.222;27.924;2023-04-03T11:34:33;13.57;;;4.32;;
30874;SDS011;17581;43.222;27.924;2023-04-03T11:37:10;14.20;;;5.60;;
30874;SDS011;17581;43.222;27.924;2023-04-03T11:39:47;8.65;;;4.90;;
30874;SDS011;17581;43.222;27.924;2023-04-03T11:47:47;18.52;;;5.97;;
30874;SDS011;17581;43.222;27.924;2023-04-03T12:13:38;7.10;;;4.93;;
30874;SDS011;17581;43.222;27.924;2023-04-03T12:16:32;19.02;;;5.13;;
30874;SDS011;17581;43.222;27.924;2023-04-03T12:29:28;15.73;;;5.55;;
30874;SDS011;17581;43.222;27.924;2023-04-03T12:38:07;12.70;;;6.22;;
30874;SDS011;17581;43.222;27.924;2023-04-03T12:46:23;22.17;;;7.47;;
30874;SDS011;17581;43.222;27.924;2023-04-03T12:48:52;12.30;;;7.07;;
30874;SDS011;17581;43.222;27.924;2023-04-03T12:51:42;29.63;;;8.50;;
30874;SDS011;17581;43.222;27.924;2023-04-03T12:54:13;29.10;;;8.20;;
30874;SDS011;17581;43.222;27.924;2023-04-03T12:57:16;17.00;;;6.28;;
30874;SDS011;17581;43.222;27.924;2023-04-03T12:59:42;14.38;;;6.15;;
30874;SDS011;17581;43.222;27.924;2023-04-03T13:02:16;24.60;;;7.05;;
30874;SDS011;17581;43.222;27.924;2023-04-03T13:04:48;16.73;;;7.05;;
30874;SDS011;17581;43.222;27.924;2023-04-03T13:07:22;21.35;;;5.90;;
30874;SDS011;17581;43.222;27.924;2023-04-03T13:09:57;16.10;;;5.53;;
30874;SDS011;17581;43.222;27.924;2023-04-03T13:12:24;10.57;;;5.88;;
30874;SDS011;17581;43.222;27.924;2023-04-03T13:14:54;23.13;;;6.97;;
30874;SDS011;17581;43.222;27.924;2023-04-03T13:17:22;77.63;;;13.45;;
30874;SDS011;17581;43.222;27.924;2023-04-03T13:19:49;20.10;;;6.88;;
30874;SDS011;17581;43.222;27.924;2023-04-03T13:22:30;19.30;;;6.22;;
30874;SDS011;17581;43.222;27.924;2023-04-03T13:27:36;12.68;;;6.03;;
30874;SDS011;17581;43.222;27.924;2023-04-03T13:30:04;112.07;;;18.02;;
30874;SDS011;17581;43.222;27.924;2023-04-03T13:32:31;19.83;;;7.13;;
30874;SDS011;17581;43.222;27.924;2023-04-03T13:34:57;21.83;;;8.30;;
30874;SDS011;17581;43.222;27.924;2023-04-03T13:42:37;18.42;;;7.03;;
30874;SDS011;17581;43.222;27.924;2023-04-03T13:45:24;28.60;;;8.63;;
30874;SDS011;17581;43.222;27.924;2023-04-03T13:47:55;17.83;;;7.28;;
30874;SDS011;17581;43.222;27.924;2023-04-03T13:50:41;28.35;;;9.95;;
30874;SDS011;17581;43.222;27.924;2023-04-03T13:53:17;9.82;;;6.63;;
30874;SDS011;17581;43.222;27.924;2023-04-03T13:55:56;13.90;;;7.10;;
30874;SDS011;17581;43.222;27.924;2023-04-03T13:58:28;29.45;;;8.48;;
30874;SDS011;17581;43.222;27.924;2023-04-03T14:01:14;23.98;;;8.32;;
30874;SDS011;17581;43.222;27.924;2023-04-03T14:03:45;18.60;;;8.57;;
30874;SDS011;17581;43.222;27.924;2023-04-03T14:06:34;22.60;;;8.32;;
30874;SDS011;17581;43.222;27.924;2023-04-03T14:09:01;25.98;;;10.55;;
30874;SDS011;17581;43.222;27.924;2023-04-03T14:11:28;37.05;;;9.98;;
30874;SDS011;17581;43.222;27.924;2023-04-03T14:13:57;24.75;;;10.65;;
30874;SDS011;17581;43.222;27.924;2023-04-03T14:16:26;33.85;;;9.70;;
30874;SDS011;17581;43.222;27.924;2023-04-03T14:18:55;17.55;;;8.23;;
30874;SDS011;17581;43.222;27.924;2023-04-03T14:21:21;21.80;;;9.57;;
30874;SDS011;17581;43.222;27.924;2023-04-03T14:23:47;20.42;;;9.25;;
30874;SDS011;17581;43.222;27.924;2023-04-03T14:26:14;39.03;;;10.32;;
30874;SDS011;17581;43.222;27.924;2023-04-03T14:28:42;22.50;;;9.40;;
30874;SDS011;17581;43.222;27.924;2023-04-03T14:31:09;22.02;;;10.35;;
30874;SDS011;17581;43.222;27.924;2023-04-03T14:33:36;25.75;;;9.40;;
30874;SDS011;17581;43.222;27.924;2023-04-03T14:36:09;27.67;;;10.82;;
30874;SDS011;17581;43.222;27.924;2023-04-03T14:38:38;23.95;;;10.05;;
30874;SDS011;17581;43.222;27.924;2023-04-03T14:41:04;35.95;;;10.77;;
30874;SDS011;17581;43.222;27.924;2023-04-03T14:43:29;22.65;;;9.27;;
30874;SDS011;17581;43.222;27.924;2023-04-03T14:45:55;41.15;;;14.00;;
30874;SDS011;17581;43.222;27.924;2023-04-03T14:48:23;32.70;;;12.02;;
30874;SDS011;17581;43.222;27.924;2023-04-03T14:50:51;27.42;;;9.18;;
30874;SDS011;17581;43.222;27.924;2023-04-03T14:53:18;26.55;;;9.75;;
30874;SDS011;17581;43.222;27.924;2023-04-03T14:55:47;22.45;;;9.43;;
30874;SDS011;17581;43.222;27.924;2023-04-03T14:58:14;27.65;;;11.02;;
30874;SDS011;17581;43.222;27.924;2023-04-03T15:00:41;20.67;;;9.63;;
30874;SDS011;17581;43.222;27.924;2023-04-03T15:03:09;23.90;;;9.90;;
30874;SDS011;17581;43.222;27.924;2023-04-03T15:05:38;18.58;;;8.15;;
30874;SDS011;17581;43.222;27.924;2023-04-03T15:08:04;14.40;;;7.63;;
30874;SDS011;17581;43.222;27.924;2023-04-03T15:10:30;25.85;;;8.75;;
30874;SDS011;17581;43.222;27.924;2023-04-03T15:12:56;22.40;;;8.45;;
30874;SDS011;17581;43.222;27.924;2023-04-03T15:15:22;17.25;;;6.68;;
30874;SDS011;17581;43.222;27.924;2023-04-03T15:17:53;14.15;;;8.27;;
30874;SDS011;17581;43.222;27.924;2023-04-03T15:20:21;25.27;;;7.22;;
30874;SDS011;17581;43.222;27.924;2023-04-03T15:22:48;19.30;;;6.03;;
30874;SDS011;17581;43.222;27.924;2023-04-03T15:25:14;27.60;;;6.32;;
30874;SDS011;17581;43.222;27.924;2023-04-03T15:27:40;10.63;;;5.28;;
30874;SDS011;17581;43.222;27.924;2023-04-03T15:30:07;16.98;;;8.77;;
30874;SDS011;17581;43.222;27.924;2023-04-03T15:32:38;7.63;;;4.80;;
30874;SDS011;17581;43.222;27.924;2023-04-03T15:35:03;9.63;;;5.18;;
30874;SDS011;17581;43.222;27.924;2023-04-03T15:37:29;18.67;;;4.70;;
30874;SDS011;17581;43.222;27.924;2023-04-03T15:39:55;12.82;;;5.75;;
30874;SDS011;17581;43.222;27.924;2023-04-03T15:42:20;11.50;;;6.10;;
30874;SDS011;17581;43.222;27.924;2023-04-03T15:44:46;9.65;;;6.25;;
30874;SDS011;17581;43.222;27.924;2023-04-03T15:47:11;36.88;;;7.10;;
30874;SDS011;17581;43.222;27.924;2023-04-03T15:49:37;9.98;;;5.97;;
30874;SDS011;17581;43.222;27.924;2023-04-03T15:52:03;21.27;;;5.53;;
30874;SDS011;17581;43.222;27.924;2023-04-03T15:54:28;15.15;;;6.07;;
30874;SDS011;17581;43.222;27.924;2023-04-03T15:56:54;15.00;;;6.50;;
30874;SDS011;17581;43.222;27.924;2023-04-03T15:59:20;13.90;;;6.63;;
30874;SDS011;17581;43.222;27.924;2023-04-03T16:01:46;11.18;;;5.53;;
30874;SDS011;17581;43.222;27.924;2023-04-03T16:04:13;16.27;;;7.50;;
30874;SDS011;17581;43.222;27.924;2023-04-03T16:06:39;14.43;;;8.18;;
30874;SDS011;17581;43.222;27.924;2023-04-03T16:09:04;15.07;;;6.38;;
30874;SDS011;17581;43.222;27.924;2023-04-03T16:11:31;15.10;;;7.82;;
30874;SDS011;17581;43.222;27.924;2023-04-03T16:13:56;20.33;;;8.38;;
30874;SDS011;17581;43.222;27.924;2023-04-03T16:16:22;15.65;;;7.40;;
30874;SDS011;17581;43.222;27.924;2023-04-03T16:18:49;20.27;;;8.45;;
30874;SDS011;17581;43.222;27.924;2023-04-03T16:21:15;13.85;;;6.82;;
30874;SDS011;17581;43.222;27.924;2023-04-03T16:23:42;11.52;;;7.20;;
30874;SDS011;17581;43.222;27.924;2023-04-03T16:26:09;10.68;;;7.30;;
30874;SDS011;17581;43.222;27.924;2023-04-03T16:28:34;12.02;;;7.00;;
30874;SDS011;17581;43.222;27.924;2023-04-03T16:31:00;11.07;;;7.15;;
30874;SDS011;17581;43.222;27.924;2023-04-03T16:33:27;9.43;;;6.70;;
30874;SDS011;17581;43.222;27.924;2023-04-03T16:35:54;13.82;;;8.23;;
30874;SDS011;17581;43.222;27.924;2023-04-03T16:38:19;14.65;;;7.70;;
30874;SDS011;17581;43.222;27.924;2023-04-03T16:40:47;14.23;;;8.52;;
30874;SDS011;17581;43.222;27.924;2023-04-03T16:43:13;12.40;;;7.70;;
30874;SDS011;17581;43.222;27.924;2023-04-03T16:45:39;15.55;;;8.05;;
30874;SDS011;17581;43.222;27.924;2023-04-03T16:48:05;16.70;;;8.68;;